createdAt,value
2023-09-05T00:02:21.192Z,3.13
2023-09-05T00:04:48.338Z,3.42
2023-09-05T00:07:18.070Z,3.58
2023-09-05T00:09:44.925Z,3.10
2023-09-05T00:12:11.895Z,3.63
2023-09-05T00:14:38.897Z,3.25
2023-09-05T00:17:07.044Z,3.28
2023-09-05T00:19:34.236Z,3.15
2023-09-05T00:22:01.093Z,2.88
2023-09-05T00:24:33.396Z,3.33
2023-09-05T00:29:28.725Z,3.80
2023-09-05T00:32:01.022Z,3.38
2023-09-05T00:36:59.626Z,3.55
2023-09-05T00:39:27.442Z,3.65
2023-09-05T00:41:57.663Z,3.30
2023-09-05T00:44:28.275Z,3.72
2023-09-05T00:46:56.998Z,3.88
2023-09-05T00:49:29.284Z,4.03
2023-09-05T00:51:58.984Z,3.53
2023-09-05T00:54:26.443Z,3.70
2023-09-05T00:56:54.656Z,3.70
2023-09-05T00:59:22.446Z,4.25
2023-09-05T01:01:50.016Z,3.78
2023-09-05T01:04:20.976Z,3.70
2023-09-05T01:07:08.933Z,3.80
2023-09-05T01:09:57.884Z,4.15
2023-09-05T01:12:25.719Z,3.78
2023-09-05T01:14:53.495Z,3.72
2023-09-05T01:17:22.156Z,3.97
2023-09-05T01:20:01.523Z,4.10
2023-09-05T01:22:56.031Z,4.00
2023-09-05T01:25:23.478Z,3.83
2023-09-05T01:27:51.249Z,4.00
2023-09-05T01:30:18.678Z,4.28
2023-09-05T01:32:47.463Z,3.83
2023-09-05T01:35:24.107Z,4.30
2023-09-05T01:37:51.273Z,3.92
2023-09-05T01:40:18.524Z,4.20
2023-09-05T01:42:45.523Z,3.65
2023-09-05T01:45:38.637Z,4.20
2023-09-05T01:48:06.366Z,4.03
2023-09-05T01:50:37.341Z,4.70
2023-09-05T01:53:13.049Z,4.00
2023-09-05T01:56:05.268Z,3.72
2023-09-05T01:58:32.156Z,3.83
2023-09-05T02:01:04.224Z,4.00
2023-09-05T02:03:31.411Z,4.22
2023-09-05T02:05:58.384Z,4.03
2023-09-05T02:08:25.396Z,3.90
2023-09-05T02:10:52.421Z,3.53
2023-09-05T02:13:19.541Z,4.10
2023-09-05T02:15:46.879Z,4.20
2023-09-05T02:18:13.952Z,4.50
2023-09-05T02:20:44.046Z,4.60
2023-09-05T02:23:16.750Z,4.55
2023-09-05T02:26:14.407Z,4.63
2023-09-05T02:29:17.387Z,4.60
2023-09-05T02:34:15.243Z,4.50
2023-09-05T02:39:11.655Z,4.63
2023-09-05T02:41:38.624Z,4.88
2023-09-05T02:44:05.672Z,4.80
2023-09-05T02:46:32.978Z,5.05
2023-09-05T02:49:02.596Z,4.68
2023-09-05T02:51:32.040Z,4.43
2023-09-05T02:54:01.539Z,5.53
2023-09-05T02:56:30.005Z,4.72
2023-09-05T02:59:05.688Z,4.45
2023-09-05T03:01:33.048Z,5.32
2023-09-05T03:04:03.172Z,4.30
2023-09-05T03:06:34.371Z,4.25
2023-09-05T03:09:01.447Z,4.22
2023-09-05T03:11:28.469Z,4.53
2023-09-05T03:13:55.293Z,4.88
2023-09-05T03:16:25.277Z,5.05
2023-09-05T03:18:52.306Z,5.35
2023-09-05T03:21:21.218Z,5.28
2023-09-05T03:23:48.888Z,6.20
2023-09-05T03:26:15.674Z,5.55
2023-09-05T03:28:44.467Z,4.95
2023-09-05T03:31:15.696Z,5.05
2023-09-05T03:33:46.107Z,4.97
2023-09-05T03:36:13.005Z,5.07
2023-09-05T03:38:39.872Z,4.88
2023-09-05T03:41:06.971Z,4.00
2023-09-05T03:43:33.882Z,4.03
2023-09-05T03:46:01.235Z,4.63
2023-09-05T03:48:28.534Z,4.80
2023-09-05T03:50:55.767Z,5.18
2023-09-05T03:53:22.612Z,4.60
2023-09-05T03:55:49.409Z,4.95
2023-09-05T03:58:17.426Z,5.60
2023-09-05T04:00:44.216Z,5.80
2023-09-05T04:03:12.340Z,5.13
2023-09-05T04:05:39.382Z,5.07
2023-09-05T04:08:09.970Z,4.63
2023-09-05T04:10:38.084Z,5.25
2023-09-05T04:13:05.284Z,4.97
2023-09-05T04:15:33.710Z,5.35
2023-09-05T04:18:01.182Z,4.93
2023-09-05T04:20:30.106Z,5.55
2023-09-05T04:22:57.154Z,5.72
2023-09-05T04:25:27.327Z,5.57
2023-09-05T04:27:56.655Z,5.35
2023-09-05T04:30:23.646Z,5.78
2023-09-05T04:32:51.011Z,5.75
2023-09-05T04:35:20.210Z,5.03
2023-09-05T04:37:47.130Z,5.45
2023-09-05T04:40:14.089Z,5.07
2023-09-05T04:42:42.174Z,5.70
2023-09-05T04:45:11.159Z,5.32
2023-09-05T04:47:40.008Z,5.65
2023-09-05T04:50:09.972Z,5.78
2023-09-05T04:52:40.746Z,5.15
2023-09-05T04:55:07.963Z,5.53
2023-09-05T04:57:35.027Z,5.40
2023-09-05T05:00:02.012Z,5.75
2023-09-05T05:02:30.230Z,5.78
2023-09-05T05:04:57.300Z,5.07
2023-09-05T05:07:24.386Z,4.97
2023-09-05T05:09:56.081Z,6.03
2023-09-05T05:12:22.959Z,5.20
2023-09-05T05:14:49.923Z,5.97
2023-09-05T05:17:17.030Z,5.57
2023-09-05T05:19:44.097Z,6.25
2023-09-05T05:22:12.341Z,5.47
2023-09-05T05:24:39.362Z,6.13
2023-09-05T05:27:07.148Z,5.53
2023-09-05T05:29:34.327Z,5.82
2023-09-05T05:32:02.740Z,6.40
2023-09-05T05:34:30.993Z,6.45
2023-09-05T05:36:58.233Z,6.05
2023-09-05T05:39:26.843Z,5.93
2023-09-05T05:41:54.206Z,6.90
2023-09-05T05:44:21.267Z,6.57
2023-09-05T05:46:48.315Z,6.22
2023-09-05T05:49:15.125Z,6.20
2023-09-05T05:51:41.905Z,6.43
2023-09-05T05:54:08.914Z,6.50
2023-09-05T05:56:36.362Z,5.82
2023-09-05T05:59:03.363Z,6.53
2023-09-05T06:01:30.194Z,6.50
2023-09-05T06:03:57.042Z,6.60
2023-09-05T06:06:23.957Z,6.22
2023-09-05T06:08:50.778Z,6.53
2023-09-05T06:11:17.584Z,6.15
2023-09-05T06:13:44.595Z,6.40
2023-09-05T06:16:11.420Z,6.80
2023-09-05T06:18:38.257Z,6.70
2023-09-05T06:21:04.924Z,6.75
2023-09-05T06:23:33.461Z,6.90
2023-09-05T06:26:00.227Z,6.40
2023-09-05T06:28:27.335Z,6.40
2023-09-05T06:30:58.744Z,5.90
2023-09-05T06:33:27.038Z,7.55
2023-09-05T06:35:54.147Z,6.68
2023-09-05T06:38:24.537Z,6.38
2023-09-05T06:40:51.813Z,6.97
2023-09-05T06:43:18.661Z,7.03
2023-09-05T06:45:45.586Z,6.53
2023-09-05T06:48:12.438Z,6.72
2023-09-05T06:50:39.499Z,6.78
2023-09-05T06:53:09.360Z,7.72
2023-09-05T06:55:36.441Z,6.88
2023-09-05T06:58:03.544Z,6.82
2023-09-05T07:00:30.315Z,6.70
2023-09-05T07:02:56.996Z,6.63
2023-09-05T07:05:24.063Z,6.75
2023-09-05T07:07:50.837Z,6.35
2023-09-05T07:10:17.712Z,6.78
2023-09-05T07:12:44.525Z,6.30
2023-09-05T07:15:11.288Z,5.88
2023-09-05T07:17:38.119Z,6.70
2023-09-05T07:20:05.667Z,6.15
2023-09-05T07:22:32.814Z,5.95
2023-09-05T07:24:59.873Z,6.35
2023-09-05T07:27:26.762Z,5.72
2023-09-05T07:29:53.791Z,5.45
2023-09-05T07:32:20.508Z,5.75
2023-09-05T07:34:49.649Z,5.53
2023-09-05T07:37:17.173Z,6.50
2023-09-05T07:39:51.133Z,5.47
2023-09-05T07:42:18.152Z,5.22
2023-09-05T07:44:44.926Z,5.22
2023-09-05T07:47:11.744Z,5.07
2023-09-05T07:49:40.409Z,5.60
2023-09-05T07:52:07.223Z,4.70
2023-09-05T07:54:34.941Z,4.90
2023-09-05T07:57:01.656Z,4.32
2023-09-05T07:59:28.694Z,5.10
2023-09-05T08:01:57.007Z,4.50
2023-09-05T08:04:23.821Z,4.32
2023-09-05T08:06:51.024Z,4.10
2023-09-05T08:09:17.913Z,4.53
2023-09-05T08:11:44.682Z,3.90
2023-09-05T08:14:11.419Z,3.47
2023-09-05T08:16:39.152Z,3.88
2023-09-05T08:19:06.243Z,3.90
2023-09-05T08:21:34.134Z,3.58
2023-09-05T08:24:00.907Z,4.20
2023-09-05T08:26:27.664Z,4.07
2023-09-05T08:28:54.428Z,3.92
2023-09-05T08:31:22.753Z,3.40
2023-09-05T08:33:50.061Z,3.58
2023-09-05T08:36:16.775Z,3.40
2023-09-05T08:38:43.458Z,3.15
2023-09-05T08:41:10.346Z,3.45
2023-09-05T08:43:37.172Z,3.05
2023-09-05T08:46:04.779Z,3.13
2023-09-05T08:48:51.994Z,2.78
2023-09-05T08:51:21.843Z,2.92
2023-09-05T08:53:57.411Z,2.80
2023-09-05T08:56:26.260Z,2.88
2023-09-05T08:58:53.821Z,3.35
2023-09-05T09:01:26.299Z,2.38
2023-09-05T09:03:55.489Z,2.30
2023-09-05T09:06:25.147Z,2.40
2023-09-05T09:08:52.392Z,2.70
2023-09-05T09:11:23.058Z,2.75
2023-09-05T09:13:57.823Z,2.80
2023-09-05T09:16:24.725Z,2.10
2023-09-05T09:19:04.759Z,2.40
2023-09-05T09:21:33.234Z,2.38
2023-09-05T09:24:01.091Z,2.80
2023-09-05T09:26:28.324Z,2.47
2023-09-05T09:28:55.299Z,2.55
2023-09-05T09:31:27.437Z,2.35
2023-09-05T09:36:36.787Z,2.75
2023-09-05T09:39:13.175Z,2.30
2023-09-05T09:41:47.699Z,1.98
2023-09-05T09:44:36.166Z,2.28
2023-09-05T09:47:03.634Z,2.47
2023-09-05T09:49:31.589Z,1.90
2023-09-05T09:52:04.165Z,2.00
2023-09-05T09:54:38.784Z,2.10
2023-09-05T09:57:06.905Z,1.70
2023-09-05T09:59:37.378Z,2.35
2023-09-05T10:02:15.761Z,1.75
2023-09-05T10:04:44.166Z,1.83
2023-09-05T10:07:15.810Z,1.83
2023-09-05T10:09:46.907Z,1.85
2023-09-05T10:12:19.917Z,1.95
2023-09-05T10:14:48.488Z,2.40
2023-09-05T10:17:16.787Z,2.65
2023-09-05T10:19:45.096Z,2.05
2023-09-05T10:22:17.953Z,2.03
2023-09-05T10:24:46.084Z,1.65
2023-09-05T10:27:13.151Z,1.90
2023-09-05T10:29:58.661Z,1.92
2023-09-05T10:32:26.296Z,1.55
2023-09-05T10:35:02.159Z,2.13
2023-09-05T10:37:57.021Z,1.70
2023-09-05T10:40:38.053Z,1.83
2023-09-05T10:43:09.999Z,2.20
2023-09-05T10:48:13.272Z,1.75
2023-09-05T10:51:09.210Z,1.88
2023-09-05T10:53:37.665Z,1.98
2023-09-05T10:56:04.714Z,1.90
2023-09-05T10:58:42.188Z,1.60
2023-09-05T11:01:31.654Z,7.30
2023-09-05T11:04:08.519Z,13.05
2023-09-05T11:06:35.952Z,2.08
2023-09-05T11:09:08.146Z,1.95
2023-09-05T11:11:38.954Z,1.65
2023-09-05T11:14:06.166Z,1.80
2023-09-05T11:16:50.474Z,2.00
2023-09-05T11:19:38.916Z,1.77
2023-09-05T11:22:12.980Z,1.88
2023-09-05T11:24:47.407Z,1.85
2023-09-05T11:27:16.492Z,1.83
2023-09-05T11:29:43.730Z,2.08
2023-09-05T11:32:15.548Z,1.83
2023-09-05T11:34:47.228Z,1.50
2023-09-05T11:37:19.776Z,1.85
2023-09-05T11:39:48.006Z,1.98
2023-09-05T11:42:19.610Z,3.47
2023-09-05T11:44:46.509Z,1.73
2023-09-05T11:47:14.628Z,1.80
2023-09-05T11:49:41.849Z,1.90
2023-09-05T11:52:10.612Z,1.70
2023-09-05T11:54:37.551Z,1.92
2023-09-05T11:57:04.610Z,2.03
2023-09-05T11:59:31.468Z,1.70
2023-09-05T12:01:58.347Z,1.92
2023-09-05T12:04:25.462Z,1.70
2023-09-05T12:06:53.187Z,1.83
2023-09-05T12:09:22.038Z,1.60
2023-09-05T12:11:49.940Z,1.70
2023-09-05T12:14:18.152Z,2.05
2023-09-05T12:16:48.627Z,2.28
2023-09-05T12:19:18.851Z,1.77
2023-09-05T12:21:47.873Z,1.88
2023-09-05T12:24:25.144Z,2.10
2023-09-05T12:26:54.105Z,1.88
2023-09-05T12:29:24.496Z,1.73
2023-09-05T12:31:51.454Z,2.05
2023-09-05T12:34:19.474Z,2.20
2023-09-05T12:36:46.332Z,2.10
2023-09-05T12:39:13.061Z,2.00
2023-09-05T12:41:39.827Z,1.80
2023-09-05T12:44:07.647Z,1.70
2023-09-05T12:46:36.142Z,1.70
2023-09-05T12:49:03.047Z,1.75
2023-09-05T12:51:31.807Z,1.85
2023-09-05T12:54:00.413Z,1.50
2023-09-05T12:56:27.275Z,1.98
2023-09-05T12:58:53.977Z,1.70
2023-09-05T13:01:23.398Z,1.90
2023-09-05T13:03:50.978Z,1.90
2023-09-05T13:06:18.360Z,1.55
2023-09-05T13:08:45.114Z,1.60
2023-09-05T13:11:13.054Z,1.35
2023-09-05T13:13:39.886Z,1.60
2023-09-05T13:16:06.697Z,1.80
2023-09-05T13:18:33.751Z,1.65
2023-09-05T13:21:00.752Z,1.65
2023-09-05T13:23:27.491Z,2.00
2023-09-05T13:25:54.343Z,2.05
2023-09-05T13:28:24.277Z,2.00
2023-09-05T13:30:51.441Z,1.58
2023-09-05T13:33:18.203Z,2.03
2023-09-05T13:35:45.637Z,1.90
2023-09-05T13:38:13.770Z,1.38
2023-09-05T13:40:40.591Z,1.60
2023-09-05T13:43:07.297Z,3.13
2023-09-05T13:45:34.220Z,2.00
2023-09-05T13:48:01.928Z,1.77
2023-09-05T13:50:29.268Z,2.00
2023-09-05T13:52:56.014Z,1.90
2023-09-05T13:55:22.821Z,1.77
2023-09-05T13:57:50.841Z,2.10
2023-09-05T14:00:22.117Z,1.67
2023-09-05T14:02:49.176Z,1.77
2023-09-05T14:05:16.291Z,1.80
2023-09-05T14:07:43.108Z,1.58
2023-09-05T14:10:12.106Z,1.88
2023-09-05T14:12:39.187Z,1.70
2023-09-05T14:15:06.725Z,1.80
2023-09-05T14:17:33.764Z,2.00
2023-09-05T14:20:00.460Z,1.65
2023-09-05T14:22:27.233Z,1.77
2023-09-05T14:24:54.002Z,1.67
2023-09-05T14:27:22.137Z,1.90
2023-09-05T14:29:52.328Z,1.65
2023-09-05T14:32:19.707Z,1.73
2023-09-05T14:34:46.524Z,1.95
2023-09-05T14:37:13.309Z,1.85
2023-09-05T14:39:40.122Z,1.77
2023-09-05T14:42:07.041Z,2.08
2023-09-05T14:44:34.300Z,1.83
2023-09-05T14:47:01.110Z,1.80
2023-09-05T14:49:27.920Z,1.77
2023-09-05T14:51:54.784Z,2.00
2023-09-05T14:54:21.588Z,1.95
2023-09-05T14:56:51.372Z,2.00
2023-09-05T14:59:18.803Z,1.88
2023-09-05T15:01:46.185Z,1.45
2023-09-05T15:04:14.303Z,1.80
2023-09-05T15:06:41.274Z,2.05
2023-09-05T15:09:08.209Z,1.60
2023-09-05T15:11:34.969Z,1.58
2023-09-05T15:14:01.662Z,1.90
2023-09-05T15:16:29.728Z,1.55
2023-09-05T15:18:56.828Z,1.60
2023-09-05T15:21:23.660Z,1.58
2023-09-05T15:23:50.434Z,1.77
2023-09-05T15:26:17.452Z,1.75
2023-09-05T15:28:44.804Z,1.80
2023-09-05T15:31:11.646Z,1.77
2023-09-05T15:33:38.509Z,1.70
2023-09-05T15:36:05.537Z,1.90
2023-09-05T15:38:33.284Z,1.50
2023-09-05T15:41:00.084Z,1.95
2023-09-05T15:43:27.059Z,1.90
2023-09-05T15:45:56.205Z,1.60
2023-09-05T15:48:23.311Z,1.85
2023-09-05T15:50:50.955Z,1.35
2023-09-05T15:53:17.813Z,1.60
2023-09-05T15:56:40.044Z,1.60
2023-09-05T16:09:54.595Z,2.10
2023-09-05T16:12:21.304Z,2.28
2023-09-05T16:14:48.076Z,1.63
2023-09-05T16:17:15.705Z,1.70
2023-09-05T16:19:42.388Z,1.63
2023-09-05T16:22:09.121Z,1.80
2023-09-05T16:24:36.059Z,1.65
2023-09-05T16:27:04.230Z,1.90
2023-09-05T16:29:30.928Z,1.73
2023-09-05T16:31:57.694Z,1.95
2023-09-05T16:34:24.484Z,1.92
2023-09-05T16:36:51.212Z,1.90
2023-09-05T16:39:18.069Z,1.92
2023-09-05T16:41:44.861Z,1.83
2023-09-05T16:44:13.741Z,1.65
2023-09-05T16:46:40.487Z,1.88
2023-09-05T16:49:07.849Z,1.42
2023-09-05T16:51:36.814Z,1.90
2023-09-05T16:54:03.794Z,1.90
2023-09-05T16:56:30.650Z,1.52
2023-09-05T16:59:00.287Z,1.92
2023-09-05T17:01:30.822Z,1.60
2023-09-05T17:03:58.048Z,1.80
2023-09-05T17:06:24.866Z,1.88
2023-09-05T17:08:51.613Z,1.75
2023-09-05T17:11:18.331Z,1.60
2023-09-05T17:13:45.052Z,1.90
2023-09-05T17:16:11.775Z,3.10
2023-09-05T17:18:42.504Z,3.33
2023-09-05T17:21:09.303Z,4.57
2023-09-05T17:23:37.755Z,14.20
2023-09-05T17:26:04.733Z,17.33
2023-09-05T17:28:31.731Z,13.10
2023-09-05T17:30:58.885Z,8.45
2023-09-05T17:33:25.780Z,4.68
2023-09-05T17:35:54.328Z,3.15
2023-09-05T17:38:21.973Z,2.05
2023-09-05T17:40:51.448Z,2.17
2023-09-05T17:43:18.377Z,2.10
2023-09-05T17:45:45.608Z,2.58
2023-09-05T17:48:19.680Z,1.80
2023-09-05T17:50:57.806Z,2.28
2023-09-05T17:53:26.641Z,2.60
2023-09-05T17:55:53.379Z,2.60
2023-09-05T17:58:21.016Z,2.08
2023-09-05T18:00:47.915Z,2.58
2023-09-05T18:03:14.806Z,2.08
2023-09-05T18:05:49.818Z,4.22
2023-09-05T18:08:17.547Z,2.80
2023-09-05T18:10:45.824Z,2.30
2023-09-05T18:13:12.849Z,2.10
2023-09-05T18:15:39.652Z,2.55
2023-09-05T18:18:06.640Z,2.05
2023-09-05T18:20:36.069Z,2.47
2023-09-05T18:23:04.179Z,2.13
2023-09-05T18:25:32.140Z,2.17
2023-09-05T18:27:59.958Z,2.42
2023-09-05T18:30:26.730Z,1.90
2023-09-05T18:32:53.561Z,2.10
2023-09-05T18:35:20.258Z,2.22
2023-09-05T18:37:47.990Z,2.10
2023-09-05T18:40:15.412Z,2.15
2023-09-05T18:42:42.424Z,2.20
2023-09-05T18:45:11.027Z,2.80
2023-09-05T18:47:46.336Z,2.08
2023-09-05T18:50:16.732Z,2.35
2023-09-05T18:52:52.160Z,2.60
2023-09-05T18:55:19.672Z,2.22
2023-09-05T18:57:46.677Z,2.78
2023-09-05T19:00:14.231Z,2.40
2023-09-05T19:02:41.551Z,1.95
2023-09-05T19:05:08.563Z,2.58
2023-09-05T19:07:35.435Z,2.38
2023-09-05T19:10:02.444Z,2.50
2023-09-05T19:12:29.361Z,2.17
2023-09-05T19:14:57.809Z,2.80
2023-09-05T19:17:28.372Z,2.75
2023-09-05T19:19:55.406Z,2.65
2023-09-05T19:22:22.435Z,2.15
2023-09-05T19:24:49.393Z,2.30
2023-09-05T19:27:16.434Z,2.85
2023-09-05T19:29:43.587Z,2.08
2023-09-05T19:32:12.689Z,2.47
2023-09-05T19:34:39.873Z,2.33
2023-09-05T19:37:07.020Z,2.78
2023-09-05T19:39:35.100Z,2.10
2023-09-05T19:42:02.048Z,2.50
2023-09-05T19:44:28.960Z,2.28
2023-09-05T19:46:56.066Z,2.50
2023-09-05T19:49:24.630Z,2.47
2023-09-05T19:51:51.644Z,2.42
2023-09-05T19:54:18.622Z,2.78
2023-09-05T19:56:45.597Z,2.90
2023-09-05T19:59:12.461Z,2.20
2023-09-05T20:01:40.894Z,2.40
2023-09-05T20:04:07.998Z,2.30
2023-09-05T20:06:37.982Z,2.22
2023-09-05T20:09:05.838Z,3.40
2023-09-05T20:11:34.521Z,3.00
2023-09-05T20:14:07.140Z,2.92
2023-09-05T20:16:34.775Z,2.42
2023-09-05T20:19:10.820Z,2.58
2023-09-05T20:21:43.859Z,2.63
2023-09-05T20:24:16.525Z,2.15
2023-09-05T20:26:46.989Z,3.47
2023-09-05T20:29:14.459Z,3.95
2023-09-05T20:31:47.932Z,3.42
2023-09-05T20:34:20.928Z,2.85
2023-09-05T20:36:50.913Z,2.95
2023-09-05T20:39:26.314Z,3.40
2023-09-05T20:41:55.906Z,2.95
2023-09-05T20:44:25.438Z,3.35
2023-09-05T20:46:53.353Z,3.90
2023-09-05T20:49:20.495Z,3.33
2023-09-05T20:51:47.515Z,3.20
2023-09-05T20:54:14.832Z,2.72
2023-09-05T20:56:42.635Z,2.88
2023-09-05T20:59:10.156Z,2.80
2023-09-05T21:01:38.246Z,2.70
2023-09-05T21:04:05.841Z,2.35
2023-09-05T21:06:32.867Z,2.78
2023-09-05T21:08:59.760Z,2.63
2023-09-05T21:11:27.996Z,2.30
2023-09-05T21:13:57.659Z,2.17
2023-09-05T21:16:26.839Z,2.33
2023-09-05T21:18:58.460Z,2.70
2023-09-05T21:21:25.814Z,2.70
2023-09-05T21:23:52.974Z,2.90
2023-09-05T21:26:20.312Z,2.50
2023-09-05T21:28:47.292Z,2.47
2023-09-05T21:31:15.902Z,2.83
2023-09-05T21:33:46.200Z,2.95
2023-09-05T21:36:13.296Z,2.55
2023-09-05T21:38:45.535Z,2.50
2023-09-05T21:43:46.480Z,2.50
2023-09-05T21:46:14.105Z,2.75
2023-09-05T21:48:41.173Z,2.60
2023-09-05T21:51:08.224Z,3.00
2023-09-05T21:53:35.072Z,2.53
2023-09-05T21:56:02.408Z,2.80
2023-09-05T21:58:29.981Z,2.72
2023-09-05T22:00:59.823Z,2.72
2023-09-05T22:03:26.859Z,2.42
2023-09-05T22:05:53.960Z,2.78
2023-09-05T22:08:21.137Z,2.90
2023-09-05T22:10:49.999Z,2.35
2023-09-05T22:13:17.096Z,2.70
2023-09-05T22:15:53.947Z,2.22
2023-09-05T22:18:21.926Z,3.42
2023-09-05T22:20:57.892Z,3.00
2023-09-05T22:23:25.780Z,2.58
2023-09-05T22:25:53.338Z,2.35
2023-09-05T22:28:21.523Z,2.40
2023-09-05T22:30:49.058Z,2.22
2023-09-05T22:33:16.370Z,2.60
2023-09-05T22:35:43.189Z,2.78
2023-09-05T22:38:09.890Z,2.30
2023-09-05T22:40:37.288Z,2.40
2023-09-05T22:43:06.181Z,2.75
2023-09-05T22:45:34.409Z,2.67
2023-09-05T22:48:01.420Z,2.80
2023-09-05T22:50:30.540Z,2.83
2023-09-05T22:52:57.367Z,2.50
2023-09-05T22:55:24.434Z,2.72
2023-09-05T22:57:51.952Z,2.70
2023-09-05T23:00:22.331Z,3.00
2023-09-05T23:02:49.380Z,2.65
2023-09-05T23:05:17.411Z,2.28
2023-09-05T23:07:45.367Z,2.75
2023-09-05T23:10:12.474Z,2.90
2023-09-05T23:12:39.802Z,2.53
2023-09-05T23:15:07.324Z,2.53
2023-09-05T23:17:34.521Z,2.67
2023-09-05T23:20:02.027Z,2.97
2023-09-05T23:22:28.824Z,2.88
2023-09-05T23:24:55.866Z,2.58
2023-09-05T23:27:23.502Z,3.00
2023-09-05T23:29:50.527Z,3.17
2023-09-05T23:32:20.423Z,2.53
2023-09-05T23:34:47.249Z,2.70
2023-09-05T23:37:14.265Z,2.38
2023-09-05T23:39:44.146Z,2.30
2023-09-05T23:42:13.165Z,2.78
2023-09-05T23:44:41.386Z,2.17
2023-09-05T23:47:09.843Z,2.95
2023-09-05T23:49:39.375Z,2.90
2023-09-05T23:52:06.434Z,2.58
2023-09-05T23:54:33.667Z,2.60
2023-09-05T23:57:00.927Z,2.28
2023-09-05T23:59:27.902Z,2.88
